createdAt,value
2019-03-19T00:00:04.245Z,22.13
2019-03-19T00:01:04.233Z,22.20
2019-03-19T00:02:04.228Z,22.15
2019-03-19T00:03:04.224Z,22.18
2019-03-19T00:04:04.206Z,22.20
2019-03-19T00:05:04.195Z,22.20
2019-03-19T00:06:04.239Z,22.20
2019-03-19T00:07:04.172Z,22.18
2019-03-19T00:08:04.196Z,22.23
2019-03-19T00:09:04.143Z,22.17
2019-03-19T00:10:04.131Z,22.18
2019-03-19T00:11:10.209Z,22.14
2019-03-19T00:12:04.107Z,22.22
2019-03-19T00:13:04.096Z,22.20
2019-03-19T00:14:04.121Z,22.18
2019-03-19T00:15:04.072Z,22.22
2019-03-19T00:16:04.085Z,22.18
2019-03-19T00:17:04.057Z,22.18
2019-03-19T00:18:04.046Z,22.18
2019-03-19T00:19:04.029Z,22.18
2019-03-19T00:20:04.028Z,22.15
2019-03-19T00:21:04.010Z,22.22
2019-03-19T00:22:03.998Z,22.18
2019-03-19T00:23:04.000Z,22.20
2019-03-19T00:24:03.976Z,22.22
2019-03-19T00:25:03.998Z,22.18
2019-03-19T00:26:03.949Z,22.20
2019-03-19T00:27:03.946Z,22.26
2019-03-19T00:28:03.930Z,22.17
2019-03-19T00:29:03.919Z,22.20
2019-03-19T00:30:03.906Z,22.20
2019-03-19T00:31:03.898Z,22.22
2019-03-19T00:32:03.879Z,22.17
2019-03-19T00:33:03.869Z,22.18
2019-03-19T00:34:03.855Z,22.14
2019-03-19T00:35:03.853Z,22.13
2019-03-19T00:36:03.849Z,22.11
2019-03-19T00:37:03.821Z,22.20
2019-03-19T00:38:03.819Z,22.13
2019-03-19T00:39:03.804Z,22.17
2019-03-19T00:40:03.790Z,22.17
2019-03-19T00:41:03.775Z,22.17
2019-03-19T00:42:03.773Z,22.17
2019-03-19T00:43:09.846Z,22.18
2019-03-19T00:44:03.739Z,22.17
2019-03-19T00:45:03.728Z,22.22
2019-03-19T00:46:03.797Z,22.17
2019-03-19T00:47:03.742Z,22.17
2019-03-19T00:48:03.700Z,22.23
2019-03-19T00:49:03.683Z,22.17
2019-03-19T00:50:03.673Z,22.18
2019-03-19T00:51:04.417Z,22.20
2019-03-19T00:52:03.646Z,22.18
2019-03-19T00:53:03.675Z,22.20
2019-03-19T00:54:03.624Z,22.15
2019-03-19T00:55:03.622Z,22.18
2019-03-19T00:56:03.623Z,22.20
2019-03-19T00:57:03.595Z,22.18
2019-03-19T00:58:03.582Z,22.18
2019-03-19T00:59:03.579Z,22.23
2019-03-19T01:00:03.562Z,22.22
2019-03-19T01:01:03.549Z,22.23
2019-03-19T01:02:03.543Z,22.20
2019-03-19T01:03:03.526Z,22.23
2019-03-19T01:04:03.546Z,22.18
2019-03-19T01:05:03.506Z,22.18
2019-03-19T01:06:03.598Z,22.18
2019-03-19T01:07:03.475Z,22.20
2019-03-19T01:08:03.463Z,22.17
2019-03-19T01:09:03.456Z,22.20
2019-03-19T01:10:03.456Z,22.13
2019-03-19T01:11:03.433Z,22.20
2019-03-19T01:12:03.421Z,22.14
2019-03-19T01:13:03.409Z,22.15
2019-03-19T01:14:03.436Z,22.08
2019-03-19T01:15:09.487Z,22.15
2019-03-19T01:16:03.374Z,22.14
2019-03-19T01:17:03.360Z,22.14
2019-03-19T01:18:03.355Z,22.20
2019-03-19T01:19:03.341Z,22.18
2019-03-19T01:20:03.332Z,22.13
2019-03-19T01:21:03.316Z,22.18
2019-03-19T01:22:03.309Z,22.22
2019-03-19T01:23:03.293Z,22.20
2019-03-19T01:24:03.282Z,22.18
2019-03-19T01:25:03.305Z,22.17
2019-03-19T01:26:03.265Z,22.22
2019-03-19T01:27:03.248Z,22.20
2019-03-19T01:28:03.239Z,22.13
2019-03-19T01:29:03.224Z,22.14
2019-03-19T01:30:03.213Z,22.17
2019-03-19T01:31:03.243Z,22.15
2019-03-19T01:32:03.189Z,22.15
2019-03-19T01:33:03.181Z,22.10
2019-03-19T01:34:03.163Z,22.10
2019-03-19T01:35:03.158Z,22.17
2019-03-19T01:36:03.141Z,22.15
2019-03-19T01:37:03.137Z,22.14
2019-03-19T01:38:03.118Z,22.18
2019-03-19T01:39:03.117Z,22.18
2019-03-19T01:40:03.103Z,22.14
2019-03-19T01:41:03.131Z,22.20
2019-03-19T01:42:03.073Z,22.20
2019-03-19T01:43:03.066Z,22.20
2019-03-19T01:44:03.052Z,22.14
2019-03-19T01:45:03.040Z,22.20
2019-03-19T01:46:03.103Z,22.18
2019-03-19T01:47:09.493Z,22.10
2019-03-19T01:48:03.006Z,22.22
2019-03-19T01:49:03.019Z,22.14
2019-03-19T01:50:02.984Z,22.18
2019-03-19T01:51:02.981Z,22.18
2019-03-19T01:52:02.959Z,22.23
2019-03-19T01:53:02.992Z,22.15
2019-03-19T01:54:02.943Z,22.23
2019-03-19T01:55:02.923Z,22.20
2019-03-19T01:56:05.545Z,22.20
2019-03-19T01:57:02.900Z,22.20
2019-03-19T01:58:02.890Z,22.15
2019-03-19T01:59:02.898Z,22.20
2019-03-19T02:00:02.868Z,22.17
2019-03-19T02:01:02.862Z,22.18
2019-03-19T02:02:02.848Z,22.18
2019-03-19T02:03:02.839Z,22.17
2019-03-19T02:04:02.820Z,22.13
2019-03-19T02:05:02.822Z,22.11
2019-03-19T02:06:02.799Z,22.11
2019-03-19T02:07:02.790Z,22.18
2019-03-19T02:08:02.778Z,22.18
2019-03-19T02:09:02.796Z,22.18
2019-03-19T02:10:02.754Z,22.13
2019-03-19T02:11:02.737Z,22.14
2019-03-19T02:12:02.729Z,22.17
2019-03-19T02:13:02.729Z,22.18
2019-03-19T02:14:02.706Z,22.22
2019-03-19T02:15:02.699Z,22.23
2019-03-19T02:16:02.688Z,22.20
2019-03-19T02:17:02.673Z,22.18
2019-03-19T02:18:02.668Z,22.17
2019-03-19T02:19:08.992Z,22.17
2019-03-19T02:20:02.682Z,22.20
2019-03-19T02:21:02.622Z,22.18
2019-03-19T02:22:02.610Z,22.14
2019-03-19T02:23:04.592Z,22.17
2019-03-19T02:24:02.591Z,22.20
2019-03-19T02:25:02.582Z,22.20
2019-03-19T02:26:02.605Z,22.18
2019-03-19T02:27:02.556Z,22.18
2019-03-19T02:28:02.548Z,22.13
2019-03-19T02:29:02.537Z,22.23
2019-03-19T02:30:02.526Z,22.17
2019-03-19T02:31:02.507Z,22.22
2019-03-19T02:32:02.534Z,22.18
2019-03-19T02:33:02.490Z,22.13
2019-03-19T02:34:02.480Z,22.17
2019-03-19T02:35:02.466Z,22.14
2019-03-19T02:36:02.466Z,22.14
2019-03-19T02:37:02.438Z,22.18
2019-03-19T02:38:02.444Z,22.20
2019-03-19T02:39:02.418Z,22.17
2019-03-19T02:40:02.405Z,22.11
2019-03-19T02:41:02.395Z,22.17
2019-03-19T02:42:02.389Z,22.23
2019-03-19T02:43:02.411Z,22.17
2019-03-19T02:44:02.363Z,22.17
2019-03-19T02:45:02.350Z,22.15
2019-03-19T02:46:02.337Z,22.18
2019-03-19T02:47:02.324Z,22.14
2019-03-19T02:48:02.326Z,22.14
2019-03-19T02:49:02.320Z,22.20
2019-03-19T02:50:02.294Z,22.18
2019-03-19T02:51:08.419Z,22.20
2019-03-19T02:52:02.277Z,22.23
2019-03-19T02:53:02.257Z,22.17
2019-03-19T02:54:02.253Z,22.18
2019-03-19T02:55:02.239Z,22.14
2019-03-19T02:56:02.220Z,22.13
2019-03-19T02:57:02.216Z,22.17
2019-03-19T02:58:02.202Z,22.10
2019-03-19T02:59:02.186Z,22.11
2019-03-19T03:00:02.180Z,22.20
2019-03-19T03:01:02.201Z,22.20
2019-03-19T03:02:02.152Z,22.20
2019-03-19T03:03:02.138Z,22.17
2019-03-19T03:04:02.127Z,22.13
2019-03-19T03:05:02.124Z,22.17
2019-03-19T03:06:02.117Z,22.13
2019-03-19T03:07:02.112Z,22.17
2019-03-19T03:08:02.089Z,22.20
2019-03-19T03:09:02.081Z,22.11
2019-03-19T03:10:02.097Z,22.13
2019-03-19T03:11:02.053Z,22.18
2019-03-19T03:12:02.044Z,22.13
2019-03-19T03:13:02.029Z,22.14
2019-03-19T03:14:02.019Z,22.17
2019-03-19T03:15:02.007Z,22.17
2019-03-19T03:16:01.989Z,22.18
2019-03-19T03:17:02.016Z,22.11
2019-03-19T03:18:01.972Z,22.14
2019-03-19T03:19:01.954Z,22.18
2019-03-19T03:20:01.951Z,22.17
2019-03-19T03:21:01.932Z,22.08
2019-03-19T03:22:01.928Z,22.11
2019-03-19T03:23:08.065Z,22.11
2019-03-19T03:24:01.908Z,22.14
2019-03-19T03:25:01.903Z,22.13
2019-03-19T03:26:01.889Z,22.17
2019-03-19T03:27:02.551Z,22.13
2019-03-19T03:28:01.867Z,22.15
2019-03-19T03:29:01.854Z,22.20
2019-03-19T03:30:01.857Z,22.13
2019-03-19T03:31:01.825Z,22.15
2019-03-19T03:32:01.805Z,22.10
2019-03-19T03:33:01.800Z,22.14
2019-03-19T03:34:01.841Z,22.10
2019-03-19T03:35:01.856Z,22.15
2019-03-19T03:36:01.777Z,22.13
2019-03-19T03:37:01.748Z,22.14
2019-03-19T03:38:01.743Z,22.18
2019-03-19T03:39:01.732Z,22.10
2019-03-19T03:40:01.749Z,22.13
2019-03-19T03:41:01.707Z,22.14
2019-03-19T03:42:01.696Z,22.13
2019-03-19T03:43:01.695Z,22.15
2019-03-19T03:44:01.674Z,22.11
2019-03-19T03:45:01.676Z,22.15
2019-03-19T03:46:01.665Z,22.11
2019-03-19T03:47:01.639Z,22.11
2019-03-19T03:48:01.623Z,22.15
2019-03-19T03:49:01.638Z,22.11
2019-03-19T03:50:01.601Z,22.17
2019-03-19T03:51:01.599Z,22.17
2019-03-19T03:52:01.594Z,22.15
2019-03-19T03:53:01.571Z,22.14
2019-03-19T03:54:01.558Z,22.22
2019-03-19T03:55:07.641Z,22.20
2019-03-19T03:56:01.546Z,22.20
2019-03-19T03:57:02.885Z,22.26
2019-03-19T03:58:01.521Z,22.22
2019-03-19T03:59:01.628Z,22.18
2019-03-19T04:00:01.485Z,22.22
2019-03-19T04:01:01.472Z,22.20
2019-03-19T04:02:01.479Z,22.20
2019-03-19T04:03:01.454Z,22.20
2019-03-19T04:04:01.436Z,22.20
2019-03-19T04:05:01.427Z,22.20
2019-03-19T04:06:01.414Z,22.20
2019-03-19T04:07:01.408Z,22.14
2019-03-19T04:08:01.419Z,22.15
2019-03-19T04:09:01.384Z,22.18
2019-03-19T04:10:01.468Z,22.20
2019-03-19T04:11:01.364Z,22.15
2019-03-19T04:12:01.344Z,22.17
2019-03-19T04:13:01.349Z,22.15
2019-03-19T04:14:01.356Z,22.14
2019-03-19T04:15:01.313Z,22.25
2019-03-19T04:16:01.302Z,22.13
2019-03-19T04:17:01.289Z,22.07
2019-03-19T04:18:01.287Z,22.06
2019-03-19T04:19:01.268Z,22.04
2019-03-19T04:20:01.274Z,21.99
2019-03-19T04:21:01.246Z,21.98
2019-03-19T04:22:01.232Z,22.04
2019-03-19T04:23:01.219Z,21.98
2019-03-19T04:24:01.216Z,22.07
2019-03-19T04:25:01.213Z,21.99
2019-03-19T04:26:01.202Z,21.98
2019-03-19T04:27:15.840Z,22.00
2019-03-19T04:28:02.159Z,22.06
2019-03-19T04:29:01.156Z,22.08
2019-03-19T04:30:01.151Z,22.08
2019-03-19T04:31:01.138Z,22.10
2019-03-19T04:32:01.115Z,22.07
2019-03-19T04:33:01.112Z,22.10
2019-03-19T04:34:01.091Z,22.14
2019-03-19T04:35:01.091Z,22.20
2019-03-19T04:36:01.108Z,22.18
2019-03-19T04:37:01.058Z,22.23
2019-03-19T04:38:01.047Z,22.15
2019-03-19T04:39:01.033Z,22.14
2019-03-19T04:40:01.023Z,22.17
2019-03-19T04:41:01.011Z,22.18
2019-03-19T04:42:01.012Z,22.33
2019-03-19T04:43:00.990Z,22.22
2019-03-19T04:44:00.979Z,22.30
2019-03-19T04:45:00.966Z,22.32
2019-03-19T04:46:00.952Z,22.30
2019-03-19T04:47:00.980Z,22.36
2019-03-19T04:48:03.424Z,22.22
2019-03-19T04:49:00.917Z,22.29
2019-03-19T04:50:00.908Z,22.38
2019-03-19T04:51:00.900Z,22.28
2019-03-19T04:52:00.885Z,22.28
2019-03-19T04:53:00.881Z,22.30
2019-03-19T04:54:00.863Z,22.23
2019-03-19T04:55:00.849Z,22.38
2019-03-19T04:56:00.840Z,22.32
2019-03-19T04:57:00.828Z,22.35
2019-03-19T04:58:00.850Z,22.29
2019-03-19T04:59:08.057Z,22.30
2019-03-19T05:00:00.790Z,22.35
2019-03-19T05:01:00.780Z,22.28
2019-03-19T05:02:00.805Z,22.43
2019-03-19T05:03:00.755Z,22.33
2019-03-19T05:04:00.784Z,22.35
2019-03-19T05:05:00.732Z,22.38
2019-03-19T05:06:00.718Z,22.36
2019-03-19T05:07:00.708Z,22.41
2019-03-19T05:08:00.701Z,22.41
2019-03-19T05:09:00.684Z,22.33
2019-03-19T05:10:00.702Z,22.38
2019-03-19T05:11:00.660Z,22.38
2019-03-19T05:12:00.651Z,22.41
2019-03-19T05:13:00.929Z,22.41
2019-03-19T05:14:00.626Z,22.32
2019-03-19T05:15:00.617Z,22.41
2019-03-19T05:16:00.639Z,22.35
2019-03-19T05:17:00.602Z,22.51
2019-03-19T05:18:00.586Z,22.41
2019-03-19T05:19:00.573Z,22.36
2019-03-19T05:20:00.563Z,22.36
2019-03-19T05:21:00.554Z,22.44
2019-03-19T05:22:00.544Z,22.41
2019-03-19T05:23:00.524Z,22.38
2019-03-19T05:24:00.513Z,22.36
2019-03-19T05:25:00.510Z,22.33
2019-03-19T05:26:00.504Z,22.41
2019-03-19T05:27:00.486Z,22.38
2019-03-19T05:28:00.470Z,22.38
2019-03-19T05:29:00.463Z,22.43
2019-03-19T05:30:00.449Z,22.36
2019-03-19T05:31:06.591Z,22.41
2019-03-19T05:32:00.425Z,22.43
2019-03-19T05:33:00.416Z,22.44
2019-03-19T05:34:00.399Z,22.50
2019-03-19T05:35:00.415Z,22.48
2019-03-19T05:36:00.379Z,22.47
2019-03-19T05:37:00.399Z,22.43
2019-03-19T05:38:00.356Z,22.50
2019-03-19T05:39:00.344Z,22.47
2019-03-19T05:40:00.346Z,22.51
2019-03-19T05:41:00.315Z,22.44
2019-03-19T05:42:00.305Z,22.48
2019-03-19T05:43:00.301Z,22.45
2019-03-19T05:44:00.288Z,22.50
2019-03-19T05:45:00.334Z,22.53
2019-03-19T05:46:00.261Z,22.53
2019-03-19T05:47:00.250Z,22.45
2019-03-19T05:48:00.263Z,22.47
2019-03-19T05:49:00.227Z,22.45
2019-03-19T05:50:00.403Z,22.44
2019-03-19T05:51:00.206Z,22.39
2019-03-19T05:52:00.195Z,22.41
2019-03-19T05:53:00.184Z,22.38
2019-03-19T05:54:00.211Z,22.47
2019-03-19T05:55:00.315Z,22.45
2019-03-19T05:56:00.151Z,22.45
2019-03-19T05:57:00.138Z,22.47
2019-03-19T05:58:00.123Z,22.44
2019-03-19T05:59:00.110Z,22.43
2019-03-19T06:00:00.173Z,22.41
2019-03-19T06:01:00.090Z,22.44
2019-03-19T06:02:00.083Z,22.38
2019-03-19T06:03:06.456Z,22.39
2019-03-19T06:04:00.062Z,22.48
2019-03-19T06:05:00.114Z,22.36
2019-03-19T06:06:00.034Z,22.41
2019-03-19T06:07:00.018Z,22.35
2019-03-19T06:08:00.016Z,22.39
2019-03-19T06:09:00.002Z,22.41
2019-03-19T06:09:59.987Z,22.36
2019-03-19T06:11:00.014Z,22.41
2019-03-19T06:11:59.963Z,22.38
2019-03-19T06:12:59.952Z,22.41
2019-03-19T06:13:59.942Z,22.38
2019-03-19T06:14:59.932Z,22.38
2019-03-19T06:15:59.919Z,22.32
2019-03-19T06:16:59.922Z,22.28
2019-03-19T06:17:59.893Z,22.26
2019-03-19T06:18:59.882Z,22.32
2019-03-19T06:19:59.875Z,22.32
2019-03-19T06:20:59.861Z,22.23
2019-03-19T06:21:59.856Z,22.35
2019-03-19T06:22:59.890Z,22.28
2019-03-19T06:23:59.826Z,22.30
2019-03-19T06:24:59.821Z,22.17
2019-03-19T06:25:59.807Z,22.17
2019-03-19T06:26:59.791Z,22.29
2019-03-19T06:28:00.981Z,22.20
2019-03-19T06:28:59.810Z,22.32
2019-03-19T06:29:59.762Z,22.33
2019-03-19T06:30:59.743Z,22.30
2019-03-19T06:31:59.736Z,22.25
2019-03-19T06:32:59.726Z,22.32
2019-03-19T06:33:59.711Z,22.26
2019-03-19T06:35:06.134Z,22.26
2019-03-19T06:35:59.688Z,22.30
2019-03-19T06:36:59.679Z,22.32
2019-03-19T06:37:59.699Z,22.26
2019-03-19T06:38:59.666Z,22.25
2019-03-19T06:39:59.648Z,22.26
2019-03-19T06:40:59.629Z,22.29
2019-03-19T06:41:59.617Z,22.36
2019-03-19T06:42:59.616Z,22.22
2019-03-19T06:43:59.616Z,22.28
2019-03-19T06:44:59.610Z,22.30
2019-03-19T06:45:59.581Z,22.30
2019-03-19T06:46:59.569Z,22.32
2019-03-19T06:47:59.553Z,22.30
2019-03-19T06:48:59.542Z,22.30
2019-03-19T06:49:59.529Z,22.36
2019-03-19T06:50:59.528Z,22.30
2019-03-19T06:51:59.510Z,22.28
2019-03-19T06:52:59.492Z,22.26
2019-03-19T06:53:59.480Z,22.25
2019-03-19T06:54:59.471Z,22.28
2019-03-19T06:55:59.501Z,22.29
2019-03-19T06:56:59.448Z,22.30
2019-03-19T06:57:59.439Z,22.39
2019-03-19T06:58:59.431Z,22.28
2019-03-19T06:59:59.423Z,22.30
2019-03-19T07:00:59.403Z,22.30
2019-03-19T07:01:59.405Z,22.30
2019-03-19T07:02:59.395Z,22.28
2019-03-19T07:03:59.372Z,22.28
2019-03-19T07:04:59.358Z,22.25
2019-03-19T07:05:59.349Z,22.28
2019-03-19T07:07:06.184Z,22.28
2019-03-19T07:07:59.324Z,22.28
2019-03-19T07:08:59.308Z,22.25
2019-03-19T07:09:59.305Z,22.25
2019-03-19T07:10:59.293Z,22.30
2019-03-19T07:12:01.450Z,22.33
2019-03-19T07:12:59.273Z,22.26
2019-03-19T07:13:59.256Z,22.29
2019-03-19T07:14:59.257Z,22.25
2019-03-19T07:15:59.232Z,22.28
2019-03-19T07:16:59.221Z,22.28
2019-03-19T07:17:59.260Z,22.29
2019-03-19T07:18:59.195Z,22.32
2019-03-19T07:19:59.184Z,22.28
2019-03-19T07:20:59.176Z,22.33
2019-03-19T07:21:59.161Z,22.28
2019-03-19T07:22:59.152Z,22.28
2019-03-19T07:23:59.155Z,22.35
2019-03-19T07:24:59.125Z,22.23
2019-03-19T07:25:59.116Z,22.30
2019-03-19T07:26:59.101Z,22.38
2019-03-19T07:27:59.090Z,22.32
2019-03-19T07:28:59.081Z,22.32
2019-03-19T07:29:59.079Z,22.30
2019-03-19T07:30:59.064Z,22.36
2019-03-19T07:31:59.045Z,22.28
2019-03-19T07:32:59.038Z,22.38
2019-03-19T07:33:59.023Z,22.28
2019-03-19T07:34:59.036Z,22.28
2019-03-19T07:35:59.005Z,22.23
2019-03-19T07:36:58.996Z,22.32
2019-03-19T07:37:59.055Z,22.30
2019-03-19T07:39:05.428Z,22.23
2019-03-19T07:39:58.958Z,22.36
2019-03-19T07:40:58.961Z,22.29
2019-03-19T07:41:58.934Z,22.23
2019-03-19T07:42:58.917Z,22.15
2019-03-19T07:43:58.916Z,22.22
2019-03-19T07:44:58.901Z,22.20
2019-03-19T07:45:58.925Z,22.26
2019-03-19T07:46:58.873Z,22.26
2019-03-19T07:47:58.863Z,22.23
2019-03-19T07:48:58.854Z,22.32
2019-03-19T07:49:58.845Z,22.28
2019-03-19T07:50:58.825Z,22.28
2019-03-19T07:51:58.827Z,22.28
2019-03-19T07:52:58.809Z,22.33
2019-03-19T07:53:58.801Z,22.36
2019-03-19T07:54:58.786Z,22.23
2019-03-19T07:55:58.775Z,22.28
2019-03-19T07:56:58.773Z,22.25
2019-03-19T07:57:58.769Z,22.26
2019-03-19T07:58:58.740Z,22.25
2019-03-19T07:59:58.723Z,22.32
2019-03-19T08:00:58.712Z,22.32
2019-03-19T08:01:58.701Z,22.30
2019-03-19T08:02:58.688Z,22.28
2019-03-19T08:03:58.715Z,22.32
2019-03-19T08:04:58.665Z,22.28
2019-03-19T08:05:58.655Z,22.26
2019-03-19T08:06:58.648Z,22.35
2019-03-19T08:07:58.634Z,22.29
2019-03-19T08:08:58.621Z,22.28
2019-03-19T08:09:58.625Z,22.25
2019-03-19T08:11:04.688Z,22.26
2019-03-19T08:11:58.593Z,22.32
2019-03-19T08:12:58.584Z,22.28
2019-03-19T08:13:58.573Z,22.36
2019-03-19T08:14:58.562Z,22.36
2019-03-19T08:15:58.546Z,22.41
2019-03-19T08:16:58.531Z,22.38
2019-03-19T08:17:58.524Z,22.38
2019-03-19T08:18:58.506Z,22.41
2019-03-19T08:19:58.511Z,22.35
2019-03-19T08:20:58.485Z,22.32
2019-03-19T08:21:58.477Z,22.35
2019-03-19T08:22:58.493Z,22.32
2019-03-19T08:23:58.869Z,22.30
2019-03-19T08:24:58.480Z,22.29
2019-03-19T08:25:58.433Z,22.20
2019-03-19T08:26:58.414Z,22.10
2019-03-19T08:27:58.414Z,22.14
2019-03-19T08:28:58.391Z,22.11
2019-03-19T08:29:58.381Z,22.10
2019-03-19T08:30:58.411Z,22.11
2019-03-19T08:31:58.359Z,22.04
2019-03-19T08:32:58.346Z,22.07
2019-03-19T08:33:58.340Z,22.10
2019-03-19T08:34:58.327Z,22.06
2019-03-19T08:36:08.736Z,22.06
2019-03-19T08:36:59.307Z,22.04
2019-03-19T08:37:58.288Z,22.02
2019-03-19T08:38:58.283Z,22.08
2019-03-19T08:39:58.266Z,22.04
2019-03-19T08:40:58.259Z,22.06
2019-03-19T08:41:58.278Z,21.96
2019-03-19T08:43:04.636Z,21.82
2019-03-19T08:43:58.222Z,21.77
2019-03-19T08:44:58.210Z,21.77
2019-03-19T08:45:58.203Z,21.89
2019-03-19T08:46:58.194Z,21.82
2019-03-19T08:47:58.189Z,21.79
2019-03-19T08:48:58.170Z,21.89
2019-03-19T08:49:58.154Z,21.91
2019-03-19T08:50:58.148Z,21.80
2019-03-19T08:51:58.129Z,21.93
2019-03-19T08:52:58.164Z,21.79
2019-03-19T08:53:58.109Z,21.69
2019-03-19T08:54:58.096Z,21.72
2019-03-19T08:55:58.089Z,21.77
2019-03-19T08:56:58.071Z,21.72
2019-03-19T08:57:58.060Z,21.66
2019-03-19T08:59:05.541Z,21.75
2019-03-19T08:59:59.037Z,21.73
2019-03-19T09:00:58.033Z,21.72
2019-03-19T09:01:58.016Z,21.72
2019-03-19T09:02:58.011Z,21.75
2019-03-19T09:03:57.989Z,21.72
2019-03-19T09:04:58.004Z,21.67
2019-03-19T09:05:57.977Z,21.72
2019-03-19T09:06:57.957Z,21.66
2019-03-19T09:07:57.943Z,21.62
2019-03-19T09:08:57.933Z,21.66
2019-03-19T09:09:57.924Z,21.66
2019-03-19T09:10:57.925Z,21.76
2019-03-19T09:11:57.902Z,21.70
2019-03-19T09:12:57.891Z,21.75
2019-03-19T09:13:57.880Z,21.69
2019-03-19T09:15:03.957Z,21.66
2019-03-19T09:15:57.896Z,21.69
2019-03-19T09:16:57.842Z,21.64
2019-03-19T09:17:57.837Z,21.62
2019-03-19T09:18:57.820Z,21.60
2019-03-19T09:19:57.807Z,21.69
2019-03-19T09:20:57.800Z,21.66
2019-03-19T09:21:57.822Z,21.77
2019-03-19T09:22:57.776Z,21.69
2019-03-19T09:23:57.767Z,21.79
2019-03-19T09:24:57.754Z,21.70
2019-03-19T09:25:57.742Z,21.72
2019-03-19T09:26:57.729Z,21.75
2019-03-19T09:27:57.723Z,21.82
2019-03-19T09:28:57.700Z,21.75
2019-03-19T09:29:57.696Z,21.91
2019-03-19T09:30:57.681Z,21.76
2019-03-19T09:31:57.666Z,21.83
2019-03-19T09:32:57.694Z,21.88
2019-03-19T09:33:57.645Z,21.89
2019-03-19T09:34:57.632Z,21.88
2019-03-19T09:35:57.624Z,21.80
2019-03-19T09:36:57.902Z,21.80
2019-03-19T09:37:59.056Z,21.85
2019-03-19T09:38:57.628Z,21.88
2019-03-19T09:39:57.579Z,21.79
2019-03-19T09:40:57.563Z,21.72
2019-03-19T09:41:57.558Z,21.67
2019-03-19T09:42:57.541Z,21.73
2019-03-19T09:43:57.528Z,21.61
2019-03-19T09:44:58.713Z,21.61
2019-03-19T09:45:57.509Z,21.67
2019-03-19T09:47:03.585Z,21.67
2019-03-19T09:47:57.487Z,21.60
2019-03-19T09:48:57.475Z,21.70
2019-03-19T09:49:57.459Z,21.76
2019-03-19T09:50:57.485Z,21.76
2019-03-19T09:51:57.441Z,21.73
2019-03-19T09:52:57.427Z,21.77
2019-03-19T09:53:57.424Z,21.73
2019-03-19T09:54:57.401Z,21.75
2019-03-19T09:55:57.390Z,21.79
2019-03-19T09:56:57.426Z,21.75
2019-03-19T09:57:57.373Z,21.76
2019-03-19T09:58:57.359Z,21.80
2019-03-19T09:59:57.344Z,21.83
2019-03-19T10:00:57.332Z,21.89
2019-03-19T10:01:57.319Z,21.83
2019-03-19T10:02:57.314Z,21.77
2019-03-19T10:03:57.303Z,21.80
2019-03-19T10:04:57.352Z,21.85
2019-03-19T10:05:57.281Z,21.89
2019-03-19T10:07:05.718Z,21.96
2019-03-19T10:07:58.263Z,21.89
2019-03-19T10:08:57.243Z,22.10
2019-03-19T10:09:57.224Z,22.08
2019-03-19T10:10:57.219Z,22.17
2019-03-19T10:11:57.205Z,22.10
2019-03-19T10:12:57.239Z,22.08
2019-03-19T10:13:57.186Z,22.07
2019-03-19T10:14:57.177Z,22.10
2019-03-19T10:15:57.159Z,22.14
2019-03-19T10:16:57.145Z,22.18
2019-03-19T10:17:57.139Z,22.20
2019-03-19T10:19:03.775Z,22.18
2019-03-19T10:19:57.113Z,22.22
2019-03-19T10:20:57.100Z,22.18
2019-03-19T10:21:57.090Z,22.18
2019-03-19T10:22:57.083Z,22.22
2019-03-19T10:23:57.072Z,22.23
2019-03-19T10:24:57.065Z,22.15
2019-03-19T10:25:57.041Z,22.15
2019-03-19T10:26:57.032Z,22.22
2019-03-19T10:27:57.026Z,22.33
2019-03-19T10:28:57.006Z,22.33
2019-03-19T10:29:57.014Z,22.13
2019-03-19T10:30:56.985Z,22.13
2019-03-19T10:31:56.979Z,22.25
2019-03-19T10:32:56.960Z,22.18
2019-03-19T10:33:56.948Z,22.29
2019-03-19T10:34:56.940Z,22.35
2019-03-19T10:35:56.948Z,22.25
2019-03-19T10:36:56.918Z,22.33
2019-03-19T10:37:56.909Z,22.33
2019-03-19T10:38:56.898Z,22.28
2019-03-19T10:39:56.882Z,22.28
2019-03-19T10:40:56.875Z,22.35
2019-03-19T10:41:56.867Z,22.30
2019-03-19T10:42:56.848Z,22.39
2019-03-19T10:43:56.840Z,22.41
2019-03-19T10:44:56.827Z,22.32
2019-03-19T10:45:56.817Z,22.33
2019-03-19T10:46:56.840Z,22.41
2019-03-19T10:47:56.788Z,22.33
2019-03-19T10:48:56.779Z,22.30
2019-03-19T10:49:56.768Z,22.30
2019-03-19T10:51:02.844Z,22.32
2019-03-19T10:51:56.743Z,22.29
2019-03-19T10:52:56.814Z,22.28
2019-03-19T10:53:56.723Z,22.29
2019-03-19T10:54:56.719Z,22.29
2019-03-19T10:55:56.703Z,22.30
2019-03-19T10:56:56.686Z,22.29
2019-03-19T10:57:56.676Z,22.38
2019-03-19T10:58:56.681Z,22.35
2019-03-19T10:59:56.653Z,22.41
2019-03-19T11:00:56.645Z,22.39
2019-03-19T11:01:56.640Z,22.39
2019-03-19T11:02:56.627Z,22.45
2019-03-19T11:03:56.612Z,22.41
2019-03-19T11:04:56.601Z,22.50
2019-03-19T11:05:56.586Z,22.43
2019-03-19T11:06:56.569Z,22.41
2019-03-19T11:07:56.566Z,22.35
2019-03-19T11:08:56.547Z,22.38
2019-03-19T11:09:56.577Z,22.45
2019-03-19T11:10:56.532Z,22.44
2019-03-19T11:11:56.511Z,22.43
2019-03-19T11:12:56.500Z,22.48
2019-03-19T11:13:56.497Z,22.51
2019-03-19T11:14:56.483Z,22.54
2019-03-19T11:15:56.483Z,22.55
2019-03-19T11:16:56.458Z,22.48
2019-03-19T11:17:56.446Z,22.51
2019-03-19T11:18:56.432Z,22.48
2019-03-19T11:19:56.422Z,22.48
2019-03-19T11:20:56.414Z,22.48
2019-03-19T11:21:56.447Z,22.48
2019-03-19T11:23:02.492Z,22.41
2019-03-19T11:23:56.383Z,22.44
2019-03-19T11:24:56.370Z,22.39
2019-03-19T11:25:56.358Z,22.28
2019-03-19T11:26:56.343Z,22.23
2019-03-19T11:27:56.376Z,22.30
2019-03-19T11:28:56.329Z,22.33
2019-03-19T11:29:59.977Z,22.32
2019-03-19T11:30:56.304Z,22.29
2019-03-19T11:31:56.293Z,22.22
2019-03-19T11:32:56.275Z,22.17
2019-03-19T11:33:56.285Z,22.23
2019-03-19T11:34:56.261Z,22.14
2019-03-19T11:35:56.242Z,22.15
2019-03-19T11:36:57.994Z,22.14
2019-03-19T11:37:56.229Z,22.17
2019-03-19T11:38:56.212Z,22.14
2019-03-19T11:39:56.194Z,22.20
2019-03-19T11:40:56.187Z,22.18
2019-03-19T11:41:56.172Z,22.17
2019-03-19T11:42:56.165Z,22.15
2019-03-19T11:43:56.161Z,22.20
2019-03-19T11:44:56.151Z,22.17
2019-03-19T11:45:56.125Z,22.28
2019-03-19T11:46:56.115Z,22.38
2019-03-19T11:47:56.109Z,22.23
2019-03-19T11:48:56.097Z,22.28
2019-03-19T11:49:56.117Z,22.36
2019-03-19T11:50:56.082Z,22.43
2019-03-19T11:51:56.063Z,22.35
2019-03-19T11:52:56.057Z,22.36
2019-03-19T11:53:56.035Z,22.35
2019-03-19T11:55:02.306Z,22.38
2019-03-19T11:55:56.009Z,22.35
2019-03-19T11:56:56.001Z,22.39
2019-03-19T11:57:57.546Z,22.39
2019-03-19T11:58:55.975Z,22.41
2019-03-19T11:59:55.963Z,22.41
2019-03-19T12:00:55.991Z,22.39
2019-03-19T12:01:55.941Z,22.43
2019-03-19T12:02:55.935Z,22.47
2019-03-19T12:03:55.926Z,22.39
2019-03-19T12:04:55.912Z,22.39
2019-03-19T12:05:55.899Z,22.35
2019-03-19T12:06:55.931Z,22.32
2019-03-19T12:07:55.876Z,22.38
2019-03-19T12:08:55.863Z,22.39
2019-03-19T12:09:55.854Z,22.41
2019-03-19T12:10:55.838Z,22.28
2019-03-19T12:11:55.832Z,22.33
2019-03-19T12:12:55.838Z,22.25
2019-03-19T12:13:55.803Z,22.17
2019-03-19T12:14:55.801Z,22.18
2019-03-19T12:15:55.793Z,22.13
2019-03-19T12:16:55.771Z,22.17
2019-03-19T12:17:55.763Z,22.17
2019-03-19T12:18:55.761Z,22.11
2019-03-19T12:19:55.738Z,22.18
2019-03-19T12:20:55.732Z,22.20
2019-03-19T12:21:55.716Z,22.17
2019-03-19T12:22:55.744Z,22.17
2019-03-19T12:23:55.692Z,22.18
2019-03-19T12:24:55.681Z,22.15
2019-03-19T12:25:55.671Z,22.23
2019-03-19T12:27:01.752Z,22.17
2019-03-19T12:27:55.651Z,22.18
2019-03-19T12:28:55.672Z,22.18
2019-03-19T12:29:55.624Z,22.20
2019-03-19T12:30:55.613Z,22.17
2019-03-19T12:31:55.598Z,22.14
2019-03-19T12:32:55.589Z,22.17
2019-03-19T12:33:55.578Z,22.10
2019-03-19T12:34:55.584Z,22.13
2019-03-19T12:35:57.797Z,22.14
2019-03-19T12:36:55.542Z,22.14
2019-03-19T12:37:55.533Z,22.13
2019-03-19T12:38:55.519Z,22.20
2019-03-19T12:39:55.515Z,22.14
2019-03-19T12:40:55.513Z,22.20
2019-03-19T12:41:55.488Z,22.20
2019-03-19T12:42:55.475Z,22.14
2019-03-19T12:43:55.462Z,22.17
2019-03-19T12:44:55.450Z,22.14
2019-03-19T12:45:55.481Z,22.15
2019-03-19T12:46:55.429Z,22.20
2019-03-19T12:47:55.415Z,22.14
2019-03-19T12:48:55.409Z,22.18
2019-03-19T12:49:55.398Z,22.14
2019-03-19T12:50:55.383Z,22.18
2019-03-19T12:51:55.389Z,22.18